createdAt,value
2019-02-07T00:02:15.994Z,11.74
2019-02-07T00:04:42.309Z,11.74
2019-02-07T00:07:08.644Z,11.73
2019-02-07T00:09:34.961Z,11.72
2019-02-07T00:12:01.266Z,11.70
2019-02-07T00:14:27.580Z,11.69
2019-02-07T00:16:53.995Z,11.68
2019-02-07T00:19:20.311Z,11.66
2019-02-07T00:21:46.617Z,11.64
2019-02-07T00:24:12.920Z,11.65
2019-02-07T00:26:39.238Z,11.64
2019-02-07T00:29:05.547Z,11.52
2019-02-07T00:31:31.865Z,11.61
2019-02-07T00:33:58.174Z,11.58
2019-02-07T00:36:24.493Z,11.58
2019-02-07T00:38:50.809Z,11.58
2019-02-07T00:41:17.133Z,11.56
2019-02-07T00:43:43.437Z,11.56
2019-02-07T00:46:09.757Z,11.55
2019-02-07T00:48:36.065Z,11.51
2019-02-07T00:51:02.381Z,11.52
2019-02-07T00:53:28.690Z,11.52
2019-02-07T00:55:55.003Z,11.52
2019-02-07T00:58:21.312Z,11.49
2019-02-07T01:00:47.627Z,11.48
2019-02-07T01:03:13.940Z,11.45
2019-02-07T01:05:40.261Z,11.48
2019-02-07T01:08:06.565Z,11.44
2019-02-07T01:10:32.879Z,11.45
2019-02-07T01:12:59.185Z,11.44
2019-02-07T01:15:25.503Z,11.40
2019-02-07T01:17:51.821Z,11.40
2019-02-07T01:20:18.134Z,11.38
2019-02-07T01:22:44.446Z,11.36
2019-02-07T01:25:10.764Z,11.35
2019-02-07T01:27:37.083Z,11.33
2019-02-07T01:30:03.399Z,11.31
2019-02-07T01:32:29.707Z,11.30
2019-02-07T01:34:56.136Z,11.28
2019-02-07T01:37:22.455Z,11.28
2019-02-07T01:39:48.753Z,11.26
2019-02-07T01:42:15.060Z,11.20
2019-02-07T01:44:41.378Z,11.20
2019-02-07T01:47:07.690Z,11.17
2019-02-07T01:49:33.998Z,11.15
2019-02-07T01:52:00.311Z,11.13
2019-02-07T01:54:26.618Z,11.11
2019-02-07T01:56:52.927Z,11.07
2019-02-07T01:59:19.232Z,11.06
2019-02-07T02:01:45.551Z,11.05
2019-02-07T02:04:11.863Z,11.04
2019-02-07T02:06:56.904Z,10.99
2019-02-07T02:09:23.213Z,10.94
2019-02-07T02:11:49.524Z,10.94
2019-02-07T02:14:15.834Z,10.93
2019-02-07T02:16:42.140Z,10.91
2019-02-07T02:19:08.452Z,10.89
2019-02-07T02:21:34.759Z,10.88
2019-02-07T02:24:01.067Z,10.86
2019-02-07T02:26:27.379Z,10.85
2019-02-07T02:28:53.686Z,10.83
2019-02-07T02:31:20.001Z,10.81
2019-02-07T02:33:46.326Z,10.81
2019-02-07T02:36:12.650Z,10.79
2019-02-07T02:38:38.954Z,10.80
2019-02-07T02:41:05.274Z,10.78
2019-02-07T02:43:31.577Z,10.77
2019-02-07T02:45:57.942Z,10.76
2019-02-07T02:48:24.244Z,10.75
2019-02-07T02:50:50.555Z,10.73
2019-02-07T02:53:16.874Z,10.73
2019-02-07T02:55:43.182Z,10.71
2019-02-07T02:58:09.531Z,10.71
2019-02-07T03:00:35.847Z,10.69
2019-02-07T03:03:02.162Z,10.67
2019-02-07T03:05:28.458Z,10.64
2019-02-07T03:07:54.766Z,10.65
2019-02-07T03:10:21.084Z,10.60
2019-02-07T03:12:47.392Z,10.65
2019-02-07T03:15:13.697Z,10.63
2019-02-07T03:17:40.005Z,10.61
2019-02-07T03:20:06.307Z,10.59
2019-02-07T03:22:32.617Z,10.58
2019-02-07T03:24:58.927Z,10.58
2019-02-07T03:30:09.348Z,10.57
2019-02-07T03:32:35.663Z,10.55
2019-02-07T03:35:01.969Z,10.55
2019-02-07T03:37:28.275Z,10.54
2019-02-07T03:39:54.579Z,10.52
2019-02-07T03:42:20.890Z,10.52
2019-02-07T03:44:47.221Z,10.52
2019-02-07T03:47:13.504Z,10.51
2019-02-07T03:49:39.823Z,10.53
2019-02-07T03:52:06.119Z,10.52
2019-02-07T03:54:32.425Z,10.50
2019-02-07T03:59:42.928Z,10.50
2019-02-07T04:02:09.236Z,10.48
2019-02-07T04:04:35.564Z,10.48
2019-02-07T04:07:01.870Z,10.48
2019-02-07T04:09:28.235Z,10.48
2019-02-07T04:14:38.512Z,10.47
2019-02-07T04:17:04.826Z,10.43
2019-02-07T04:19:31.160Z,10.44
2019-02-07T04:24:41.547Z,10.43
2019-02-07T04:27:07.856Z,10.43
2019-02-07T04:29:34.161Z,10.43
2019-02-07T04:34:44.581Z,10.41
2019-02-07T04:37:10.904Z,10.40
2019-02-07T04:39:37.218Z,10.39
2019-02-07T04:42:03.526Z,10.40
2019-02-07T04:44:29.836Z,10.40
2019-02-07T04:46:56.137Z,10.37
2019-02-07T04:49:22.449Z,10.39
2019-02-07T04:51:48.754Z,10.38
2019-02-07T04:54:15.059Z,10.38
2019-02-07T04:59:25.289Z,10.36
2019-02-07T05:01:51.614Z,10.34
2019-02-07T05:04:17.927Z,10.33
2019-02-07T05:06:44.236Z,10.33
2019-02-07T05:09:10.551Z,10.31
2019-02-07T05:11:36.860Z,10.30
2019-02-07T05:14:03.165Z,10.31
2019-02-07T05:19:13.349Z,10.30
2019-02-07T05:24:23.588Z,10.29
2019-02-07T05:26:49.895Z,10.29
2019-02-07T05:32:00.474Z,10.29
2019-02-07T05:34:26.788Z,10.28
2019-02-07T05:36:53.106Z,10.27
2019-02-07T05:39:19.416Z,10.26
2019-02-07T05:41:45.734Z,10.26
2019-02-07T05:44:12.045Z,10.26
2019-02-07T05:46:38.355Z,10.25
2019-02-07T05:49:04.666Z,10.26
2019-02-07T05:51:30.968Z,10.28
2019-02-07T05:53:57.322Z,10.29
2019-02-07T05:56:23.630Z,10.28
2019-02-07T05:58:49.944Z,10.29
2019-02-07T06:01:16.264Z,10.29
2019-02-07T06:03:42.578Z,10.28
2019-02-07T06:06:08.880Z,10.29
2019-02-07T06:08:35.190Z,10.30
2019-02-07T06:11:01.498Z,10.30
2019-02-07T06:13:27.805Z,10.30
2019-02-07T06:15:56.873Z,10.33
2019-02-07T06:18:20.418Z,10.34
2019-02-07T06:20:46.725Z,10.39
2019-02-07T06:23:13.073Z,10.49
2019-02-07T06:25:39.338Z,10.63
2019-02-07T06:28:05.663Z,10.76
2019-02-07T06:30:31.976Z,10.88
2019-02-07T06:32:58.293Z,11.01
2019-02-07T06:35:24.615Z,11.17
2019-02-07T06:37:50.917Z,11.32
2019-02-07T06:40:17.252Z,11.48
2019-02-07T06:42:43.594Z,11.62
2019-02-07T06:45:09.866Z,11.68
2019-02-07T06:47:36.177Z,11.68
2019-02-07T06:50:02.486Z,11.73
2019-02-07T06:52:28.795Z,11.87
2019-02-07T06:54:55.126Z,11.90
2019-02-07T06:57:21.433Z,11.85
2019-02-07T06:59:47.741Z,11.79
2019-02-07T07:02:14.068Z,11.70
2019-02-07T07:04:40.370Z,11.64
2019-02-07T07:07:06.682Z,11.58
2019-02-07T07:09:32.992Z,11.52
2019-02-07T07:11:59.305Z,11.48
2019-02-07T07:14:25.634Z,11.52
2019-02-07T07:16:51.944Z,11.69
2019-02-07T07:19:18.267Z,11.88
2019-02-07T07:21:44.648Z,12.00
2019-02-07T07:24:10.956Z,12.33
2019-02-07T07:26:37.280Z,12.65
2019-02-07T07:29:03.593Z,12.95
2019-02-07T07:31:29.908Z,13.24
2019-02-07T07:33:56.218Z,13.51
2019-02-07T07:36:22.534Z,13.53
2019-02-07T07:38:48.880Z,13.43
2019-02-07T07:41:15.187Z,13.34
2019-02-07T07:43:41.532Z,13.23
2019-02-07T07:46:07.840Z,13.13
2019-02-07T07:48:34.160Z,13.02
2019-02-07T07:51:00.479Z,12.89
2019-02-07T07:53:26.786Z,12.81
2019-02-07T07:55:53.099Z,12.73
2019-02-07T07:58:19.424Z,12.62
2019-02-07T08:00:45.737Z,12.54
2019-02-07T08:03:12.159Z,12.46
2019-02-07T08:05:38.479Z,12.40
2019-02-07T08:08:04.788Z,12.35
2019-02-07T08:10:31.114Z,12.38
2019-02-07T08:12:57.418Z,12.60
2019-02-07T08:15:23.733Z,12.83
2019-02-07T08:17:50.063Z,13.15
2019-02-07T08:20:16.390Z,13.71
2019-02-07T08:22:42.702Z,13.88
2019-02-07T08:25:09.010Z,13.92
2019-02-07T08:27:35.314Z,13.81
2019-02-07T08:30:01.634Z,13.71
2019-02-07T08:32:27.946Z,13.66
2019-02-07T08:34:54.258Z,13.60
2019-02-07T08:37:20.581Z,13.52
2019-02-07T08:39:50.922Z,13.42
2019-02-07T08:42:17.255Z,13.32
2019-02-07T08:44:43.561Z,13.25
2019-02-07T08:47:09.887Z,13.25
2019-02-07T08:49:36.191Z,13.27
2019-02-07T08:52:02.551Z,13.30
2019-02-07T08:54:28.827Z,13.39
2019-02-07T08:56:55.191Z,13.69
2019-02-07T08:59:21.524Z,14.19
2019-02-07T09:01:47.833Z,14.88
2019-02-07T09:04:14.145Z,15.57
2019-02-07T09:06:40.469Z,16.15
2019-02-07T09:09:06.775Z,16.68
2019-02-07T09:11:33.086Z,17.13
2019-02-07T09:13:59.431Z,17.55
2019-02-07T09:16:25.753Z,17.93
2019-02-07T09:18:52.063Z,18.23
2019-02-07T09:21:18.374Z,18.54
2019-02-07T09:23:44.677Z,18.85
2019-02-07T09:26:10.983Z,19.11
2019-02-07T09:28:37.315Z,19.44
2019-02-07T09:31:03.629Z,19.69
2019-02-07T09:33:29.944Z,19.81
2019-02-07T09:36:04.875Z,19.93
2019-02-07T09:38:22.704Z,19.79
2019-02-07T09:40:48.976Z,19.53
2019-02-07T09:43:15.321Z,19.26
2019-02-07T09:45:41.628Z,19.05
2019-02-07T09:48:08.054Z,18.88
2019-02-07T09:50:34.294Z,18.75
2019-02-07T09:53:00.610Z,18.61
2019-02-07T09:55:26.923Z,18.43
2019-02-07T09:57:53.243Z,18.24
2019-02-07T10:00:19.579Z,18.05
2019-02-07T10:02:45.899Z,17.85
2019-02-07T10:05:12.215Z,17.67
2019-02-07T10:07:38.520Z,17.52
2019-02-07T10:10:04.895Z,17.41
2019-02-07T10:12:31.206Z,17.33
2019-02-07T10:14:57.558Z,17.30
2019-02-07T10:17:23.876Z,17.23
2019-02-07T10:19:50.182Z,17.17
2019-02-07T10:22:16.505Z,17.13
2019-02-07T10:24:42.823Z,17.15
2019-02-07T10:27:09.139Z,17.33
2019-02-07T10:29:35.440Z,17.40
2019-02-07T10:32:01.752Z,17.47
2019-02-07T10:34:28.062Z,17.56
2019-02-07T10:36:54.381Z,17.55
2019-02-07T10:39:20.688Z,17.49
2019-02-07T10:41:49.275Z,17.42
2019-02-07T10:44:15.587Z,17.33
2019-02-07T10:46:41.917Z,17.26
2019-02-07T10:49:08.232Z,17.19
2019-02-07T10:51:34.552Z,17.09
2019-02-07T10:54:00.893Z,16.99
2019-02-07T10:56:27.245Z,16.88
2019-02-07T10:58:53.557Z,16.76
2019-02-07T11:01:19.866Z,16.63
2019-02-07T11:03:46.200Z,16.55
2019-02-07T11:06:12.557Z,16.39
2019-02-07T11:08:38.866Z,16.36
2019-02-07T11:11:05.175Z,16.28
2019-02-07T11:13:31.485Z,16.22
2019-02-07T11:15:57.844Z,16.24
2019-02-07T11:18:24.157Z,16.25
2019-02-07T11:20:50.464Z,16.26
2019-02-07T11:23:16.782Z,16.24
2019-02-07T11:25:43.089Z,16.22
2019-02-07T11:28:10.870Z,16.17
2019-02-07T11:30:38.076Z,16.14
2019-02-07T11:33:04.393Z,16.10
2019-02-07T11:35:30.716Z,16.05
2019-02-07T11:37:57.031Z,15.99
2019-02-07T11:40:23.337Z,15.94
2019-02-07T11:42:49.644Z,15.90
2019-02-07T11:45:15.957Z,15.86
2019-02-07T11:47:42.281Z,15.79
2019-02-07T11:50:08.589Z,15.78
2019-02-07T11:52:34.914Z,15.74
2019-02-07T11:55:01.213Z,15.71
2019-02-07T11:57:27.523Z,15.67
2019-02-07T11:59:53.836Z,15.65
2019-02-07T12:02:20.147Z,15.62
2019-02-07T12:04:46.451Z,15.59
2019-02-07T12:07:12.762Z,15.55
2019-02-07T12:09:39.073Z,15.53
2019-02-07T12:12:05.376Z,15.49
2019-02-07T12:14:31.695Z,15.46
2019-02-07T12:16:58.003Z,15.42
2019-02-07T12:19:24.317Z,15.37
2019-02-07T12:21:50.619Z,15.32
2019-02-07T12:24:16.936Z,15.29
2019-02-07T12:26:43.243Z,15.25
2019-02-07T12:29:09.548Z,15.21
2019-02-07T12:31:35.856Z,15.16
2019-02-07T12:34:02.179Z,15.15
2019-02-07T12:36:28.478Z,15.11
2019-02-07T12:38:54.789Z,15.09
2019-02-07T12:41:21.100Z,15.07
2019-02-07T12:43:47.417Z,15.04
2019-02-07T12:46:13.723Z,15.01
2019-02-07T12:48:40.039Z,14.98
2019-02-07T12:51:06.335Z,14.96
2019-02-07T12:53:32.654Z,14.93
2019-02-07T12:55:58.961Z,14.91
2019-02-07T12:58:25.273Z,14.90
2019-02-07T13:00:51.583Z,14.88
2019-02-07T13:03:17.903Z,14.85
2019-02-07T13:05:44.214Z,14.83
2019-02-07T13:08:10.530Z,14.80
2019-02-07T13:10:36.858Z,14.79
2019-02-07T13:13:03.172Z,14.76
2019-02-07T13:15:29.483Z,14.74
2019-02-07T13:17:55.840Z,14.74
2019-02-07T13:20:22.103Z,14.71
2019-02-07T13:22:48.453Z,14.70
2019-02-07T13:25:14.717Z,14.66
2019-02-07T13:27:41.078Z,14.64
2019-02-07T13:30:07.332Z,14.61
2019-02-07T13:32:33.650Z,14.57
2019-02-07T13:34:59.960Z,14.52
2019-02-07T13:37:26.267Z,14.53
2019-02-07T13:39:52.571Z,14.50
2019-02-07T13:42:18.876Z,14.48
2019-02-07T13:44:45.185Z,14.43
2019-02-07T13:47:11.510Z,14.44
2019-02-07T13:49:37.853Z,14.39
2019-02-07T13:52:04.175Z,14.37
2019-02-07T13:54:30.484Z,14.36
2019-02-07T13:56:56.785Z,14.34
2019-02-07T13:59:23.103Z,14.32
2019-02-07T14:01:49.415Z,14.31
2019-02-07T14:04:15.726Z,14.28
2019-02-07T14:06:42.135Z,14.26
2019-02-07T14:09:08.340Z,14.26
2019-02-07T14:11:34.660Z,14.25
2019-02-07T14:14:00.967Z,14.23
2019-02-07T14:16:27.274Z,14.21
2019-02-07T14:18:53.582Z,14.15
2019-02-07T14:21:19.893Z,14.06
2019-02-07T14:23:46.215Z,13.97
2019-02-07T14:26:12.529Z,13.90
2019-02-07T14:28:38.846Z,13.91
2019-02-07T14:31:06.305Z,13.91
2019-02-07T14:33:31.488Z,13.90
2019-02-07T14:35:57.796Z,13.89
2019-02-07T14:38:24.141Z,13.88
2019-02-07T14:40:50.486Z,13.86
2019-02-07T14:43:16.787Z,13.87
2019-02-07T14:45:43.124Z,13.86
2019-02-07T14:48:09.424Z,13.83
2019-02-07T14:50:35.757Z,13.81
2019-02-07T14:53:02.218Z,13.79
2019-02-07T14:55:28.398Z,13.67
2019-02-07T14:57:54.710Z,13.74
2019-02-07T15:00:21.341Z,13.73
2019-02-07T15:02:47.653Z,13.70
2019-02-07T15:05:13.963Z,13.65
2019-02-07T15:07:40.264Z,13.65
2019-02-07T15:10:06.573Z,13.61
2019-02-07T15:12:32.887Z,13.56
2019-02-07T15:14:59.195Z,13.54
2019-02-07T15:17:25.500Z,13.48
2019-02-07T15:19:51.825Z,13.45
2019-02-07T15:22:18.138Z,13.42
2019-02-07T15:24:44.473Z,13.39
2019-02-07T15:27:10.808Z,13.35
2019-02-07T15:29:37.121Z,13.29
2019-02-07T15:32:03.430Z,13.24
2019-02-07T15:34:29.762Z,13.22
2019-02-07T15:36:56.070Z,13.19
2019-02-07T15:39:22.378Z,13.15
2019-02-07T15:41:48.694Z,13.13
2019-02-07T15:44:14.996Z,13.11
2019-02-07T15:46:41.309Z,13.09
2019-02-07T15:49:07.620Z,13.05
2019-02-07T15:51:33.931Z,13.00
2019-02-07T15:54:00.261Z,13.00
2019-02-07T15:56:26.565Z,12.93
2019-02-07T15:58:52.871Z,12.87
2019-02-07T16:01:19.192Z,13.30
2019-02-07T16:03:45.504Z,13.82
2019-02-07T16:06:11.824Z,13.93
2019-02-07T16:08:38.135Z,13.74
2019-02-07T16:11:04.451Z,13.53
2019-02-07T16:13:30.768Z,13.39
2019-02-07T16:15:57.125Z,13.26
2019-02-07T16:18:23.456Z,13.17
2019-02-07T16:20:49.798Z,13.10
2019-02-07T16:23:16.170Z,13.04
2019-02-07T16:25:42.475Z,12.98
2019-02-07T16:28:08.832Z,12.92
2019-02-07T16:30:35.149Z,12.89
2019-02-07T16:33:01.460Z,12.82
2019-02-07T16:35:27.770Z,12.80
2019-02-07T16:37:54.116Z,12.76
2019-02-07T16:40:22.013Z,12.71
2019-02-07T16:42:46.753Z,12.68
2019-02-07T16:45:13.069Z,12.64
2019-02-07T16:47:39.386Z,12.61
2019-02-07T16:50:05.742Z,12.57
2019-02-07T16:52:32.027Z,12.50
2019-02-07T16:54:58.340Z,12.49
2019-02-07T16:57:24.666Z,12.45
2019-02-07T16:59:50.977Z,12.44
2019-02-07T17:02:17.304Z,12.38
2019-02-07T17:04:43.604Z,12.37
2019-02-07T17:07:09.914Z,12.37
2019-02-07T17:09:36.228Z,12.35
2019-02-07T17:12:02.546Z,12.33
2019-02-07T17:14:28.855Z,12.30
2019-02-07T17:16:55.177Z,12.28
2019-02-07T17:19:21.501Z,12.25
2019-02-07T17:21:47.808Z,12.24
2019-02-07T17:24:14.113Z,12.20
2019-02-07T17:26:40.429Z,12.16
2019-02-07T17:29:06.750Z,12.12
2019-02-07T17:31:33.061Z,12.10
2019-02-07T17:33:59.372Z,12.07
2019-02-07T17:36:25.705Z,12.03
2019-02-07T17:38:52.022Z,12.00
2019-02-07T17:41:18.337Z,11.96
2019-02-07T17:43:44.646Z,11.94
2019-02-07T17:46:10.962Z,11.92
2019-02-07T17:48:37.275Z,11.89
2019-02-07T17:51:03.607Z,11.85
2019-02-07T17:53:29.994Z,11.84
2019-02-07T17:55:56.308Z,11.81
2019-02-07T17:58:22.622Z,11.78
2019-02-07T18:00:48.966Z,11.78
2019-02-07T18:03:15.247Z,11.77
2019-02-07T18:05:41.566Z,11.76
2019-02-07T18:08:07.915Z,11.72
2019-02-07T18:10:34.203Z,11.69
2019-02-07T18:13:00.507Z,11.65
2019-02-07T18:15:26.915Z,11.65
2019-02-07T18:17:53.196Z,11.64
2019-02-07T18:20:19.532Z,11.63
2019-02-07T18:22:45.852Z,11.76
2019-02-07T18:25:12.162Z,11.75
2019-02-07T18:27:38.469Z,11.73
2019-02-07T18:30:04.779Z,11.70
2019-02-07T18:32:31.099Z,11.67
2019-02-07T18:34:57.413Z,11.67
2019-02-07T18:37:23.732Z,11.65
2019-02-07T18:39:50.047Z,11.92
2019-02-07T18:42:16.403Z,11.94
2019-02-07T18:44:42.693Z,11.88
2019-02-07T18:47:09.045Z,11.80
2019-02-07T18:49:35.348Z,11.73
2019-02-07T18:52:01.673Z,11.67
2019-02-07T18:54:27.991Z,11.66
2019-02-07T18:56:54.301Z,11.65
2019-02-07T18:59:20.616Z,11.64
2019-02-07T19:01:46.923Z,11.62
2019-02-07T19:04:13.253Z,11.61
2019-02-07T19:06:39.582Z,11.59
2019-02-07T19:09:05.869Z,11.56
2019-02-07T19:11:33.303Z,11.57
2019-02-07T19:13:59.584Z,11.54
2019-02-07T19:16:26.926Z,11.53
2019-02-07T19:18:53.250Z,11.52
2019-02-07T19:21:19.554Z,11.48
2019-02-07T19:23:45.865Z,11.47
2019-02-07T19:26:14.625Z,11.47
2019-02-07T19:28:40.931Z,11.45
2019-02-07T19:31:07.241Z,11.47
2019-02-07T19:33:33.551Z,11.46
2019-02-07T19:35:59.870Z,11.80
2019-02-07T19:38:26.172Z,11.82
2019-02-07T19:40:52.502Z,11.73
2019-02-07T19:43:18.927Z,11.65
2019-02-07T19:45:45.261Z,11.60
2019-02-07T19:48:11.591Z,11.57
2019-02-07T19:50:37.908Z,11.70
2019-02-07T19:53:04.226Z,11.69
2019-02-07T19:55:30.551Z,11.63
2019-02-07T19:57:56.913Z,11.58
2019-02-07T20:00:23.227Z,11.55
2019-02-07T20:02:49.541Z,11.53
2019-02-07T20:05:16.710Z,11.48
2019-02-07T20:07:43.056Z,11.45
2019-02-07T20:10:09.361Z,11.41
2019-02-07T20:12:35.670Z,11.39
2019-02-07T20:15:02.007Z,11.39
2019-02-07T20:17:28.320Z,11.38
2019-02-07T20:19:54.655Z,11.35
2019-02-07T20:22:20.968Z,11.34
2019-02-07T20:24:47.284Z,11.34
2019-02-07T20:27:13.604Z,11.27
2019-02-07T20:29:39.918Z,11.27
2019-02-07T20:32:06.229Z,11.26
2019-02-07T20:34:32.542Z,11.24
2019-02-07T20:36:58.865Z,11.23
2019-02-07T20:39:27.437Z,11.21
2019-02-07T20:41:53.749Z,11.18
2019-02-07T20:44:20.113Z,11.18
2019-02-07T20:46:46.377Z,11.17
2019-02-07T20:49:12.679Z,11.15
2019-02-07T20:51:40.113Z,11.14
2019-02-07T20:54:06.405Z,11.12
2019-02-07T20:56:32.705Z,11.10
2019-02-07T20:58:59.038Z,11.10
2019-02-07T21:01:25.397Z,11.07
2019-02-07T21:03:51.710Z,11.04
2019-02-07T21:06:18.062Z,11.00
2019-02-07T21:08:44.334Z,10.99
2019-02-07T21:11:10.654Z,10.98
2019-02-07T21:13:37.054Z,10.97
2019-02-07T21:16:03.365Z,10.96
2019-02-07T21:18:29.697Z,10.93
2019-02-07T21:20:55.998Z,10.92
2019-02-07T21:23:22.311Z,10.91
2019-02-07T21:25:48.658Z,10.89
2019-02-07T21:28:14.985Z,10.89
2019-02-07T21:30:41.281Z,10.87
2019-02-07T21:33:07.594Z,10.86
2019-02-07T21:35:33.904Z,10.85
2019-02-07T21:38:00.665Z,10.82
2019-02-07T21:40:26.835Z,10.80
2019-02-07T21:42:53.142Z,10.78
2019-02-07T21:45:19.448Z,10.77
2019-02-07T21:47:45.769Z,10.73
2019-02-07T21:50:12.080Z,10.73
2019-02-07T21:52:42.025Z,10.71
2019-02-07T21:55:04.703Z,10.70
2019-02-07T21:57:31.023Z,10.69
2019-02-07T22:00:00.882Z,10.68
2019-02-07T22:02:23.688Z,10.67
2019-02-07T22:04:50.000Z,10.66
2019-02-07T22:07:16.315Z,10.66
2019-02-07T22:09:42.665Z,10.62
2019-02-07T22:12:08.943Z,10.64
2019-02-07T22:14:35.268Z,10.64
2019-02-07T22:17:01.579Z,10.63
2019-02-07T22:19:28.002Z,10.62
2019-02-07T22:21:54.300Z,10.60
2019-02-07T22:24:20.643Z,10.60
2019-02-07T22:26:47.021Z,10.59
2019-02-07T22:29:13.339Z,10.55
2019-02-07T22:31:39.650Z,10.57
2019-02-07T22:34:05.959Z,10.56
2019-02-07T22:36:32.273Z,10.55
2019-02-07T22:38:58.585Z,10.54
2019-02-07T22:41:24.896Z,10.53
2019-02-07T22:43:51.206Z,10.52
2019-02-07T22:46:17.650Z,10.53
2019-02-07T22:48:43.949Z,10.52
2019-02-07T22:51:10.251Z,10.50
2019-02-07T22:53:36.608Z,10.47
2019-02-07T22:56:02.885Z,10.47
2019-02-07T22:58:29.201Z,10.45
2019-02-07T23:00:55.531Z,10.44
2019-02-07T23:03:21.846Z,10.42
2019-02-07T23:05:48.149Z,10.41
2019-02-07T23:08:14.459Z,10.40
2019-02-07T23:10:40.772Z,10.40
2019-02-07T23:13:07.092Z,10.40
2019-02-07T23:15:33.405Z,10.40
2019-02-07T23:17:59.730Z,10.40
2019-02-07T23:20:26.069Z,10.39
2019-02-07T23:22:52.389Z,10.40
2019-02-07T23:25:18.690Z,10.40
2019-02-07T23:27:45.002Z,10.40
2019-02-07T23:30:11.318Z,10.39
2019-02-07T23:32:37.634Z,10.38
2019-02-07T23:35:03.944Z,10.37
2019-02-07T23:37:30.255Z,10.35
2019-02-07T23:39:56.560Z,10.35
2019-02-07T23:42:22.893Z,10.35
2019-02-07T23:44:49.206Z,10.34
2019-02-07T23:47:15.524Z,10.31
2019-02-07T23:49:41.833Z,10.30
2019-02-07T23:52:08.149Z,10.29
2019-02-07T23:54:34.470Z,10.27
2019-02-07T23:57:00.793Z,10.25
2019-02-07T23:59:27.109Z,10.25
